Time;durP1;ratioP1;P1;durP2;ratioP2;P2;SDS_P1;SDS_P2;PMS_P1;PMS_P2;Temp;Humidity;BMP_temperature;BMP_pressure;BME280_temperature;BME280_humidity;BME280_pressure;Samples;Min_cycle;Max_cycle;Signal;HPM_P1;HPM_P2
2022/05/20 00:04:20;;;;;;;1.40;1.20;;;;;;;14.98;40.48;99130.65;219342;1270;22565;-68
2022/05/20 00:09:40;;;;;;;1.80;0.90;;;;;;;14.89;40.61;99127.61;221107;1270;294712;-68
2022/05/20 00:15:11;;;;;;;3.10;1.20;;;;;;;14.84;40.94;99136.63;220007;1270;22553;-68
2022/05/20 00:20:32;;;;;;;1.20;0.90;;;;;;;14.86;40.94;99140.64;219777;1270;22634;-68
2022/05/20 00:25:48;;;;;;;1.70;1.20;;;;;;;14.87;41.13;99129.23;220189;1270;24938;-68
2022/05/20 00:30:54;;;;;;;2.60;1.40;;;;;;;14.82;41.08;99121.33;219619;1270;24843;-68
2022/05/20 00:35:59;;;;;;;2.20;1.20;;;;;;;14.77;41.22;99112.88;219965;1270;24259;-68
2022/05/20 00:41:03;;;;;;;1.70;1.00;;;;;;;14.73;41.34;99113.39;220796;1270;25382;-68
2022/05/20 00:46:17;;;;;;;2.00;1.10;;;;;;;14.74;41.49;99110.09;219674;1270;22705;-68
2022/05/20 00:51:30;;;;;;;2.30;1.00;;;;;;;14.75;41.47;99104.07;220324;1270;22571;-67
2022/05/20 00:56:37;;;;;;;2.60;1.20;;;;;;;14.77;41.37;99097.70;220927;1270;22535;-68
2022/05/20 01:01:40;;;;;;;2.00;1.00;;;;;;;14.79;41.47;99104.57;219749;1270;22584;-67
2022/05/20 01:06:43;;;;;;;2.00;1.00;;;;;;;14.80;41.59;99109.34;219998;1270;22541;-68
2022/05/20 01:11:46;;;;;;;2.90;1.10;;;;;;;14.80;41.63;99101.02;219426;1270;24432;-68
2022/05/20 01:16:48;;;;;;;2.40;1.10;;;;;;;14.80;41.70;99103.64;220288;1270;22535;-68
2022/05/20 01:21:51;;;;;;;2.10;1.20;;;;;;;14.82;41.74;99100.45;219499;1270;22610;-68
2022/05/20 01:27:00;;;;;;;2.40;1.10;;;;;;;14.89;41.69;99100.61;219413;1270;22652;-68
2022/05/20 01:32:03;;;;;;;1.10;1.00;;;;;;;14.94;41.65;99101.33;219396;1270;22580;-68
2022/05/20 01:37:08;;;;;;;1.70;0.70;;;;;;;14.97;41.54;99104.16;219582;1270;24326;-69
2022/05/20 01:42:38;;;;;;;0.80;0.80;;;;;;;14.98;41.43;99100.85;219431;1270;23792;-69
2022/05/20 01:47:43;;;;;;;;;;;;;;;14.93;41.43;99089.32;219913;1270;22551;-67
2022/05/20 01:52:59;;;;;;;1.10;0.90;;;;;;;14.82;41.56;99089.39;219852;1270;24199;-67
2022/05/20 01:58:17;;;;;;;1.10;0.90;;;;;;;14.74;41.86;99089.48;219656;1270;24445;-67
2022/05/20 02:03:36;;;;;;;2.10;1.10;;;;;;;14.75;41.81;99098.98;219942;1270;22544;-67
2022/05/20 02:08:51;;;;;;;1.10;0.80;;;;;;;14.74;42.04;99089.06;219499;1270;24257;-68
2022/05/20 02:14:01;;;;;;;0.80;0.70;;;;;;;14.74;42.00;99085.01;219775;1271;22551;-67
2022/05/20 02:19:10;;;;;;;2.40;0.80;;;;;;;14.77;41.85;99080.92;219545;1269;24324;-68
2022/05/20 02:24:20;;;;;;;0.80;0.80;;;;;;;14.84;41.80;99079.56;219264;1270;22967;-68
2022/05/20 02:29:35;;;;;;;1.60;0.90;;;;;;;14.92;41.66;99080.82;220190;1270;22697;-69
2022/05/20 02:34:38;;;;;;;1.30;0.80;;;;;;;14.97;41.50;99075.86;220112;1270;22550;-67
2022/05/20 02:39:43;;;;;;;1.60;1.00;;;;;;;14.98;41.52;99067.02;219757;1270;23924;-66
2022/05/20 02:44:49;;;;;;;2.80;1.00;;;;;;;15.01;41.34;99060.23;219399;1270;22919;-68
2022/05/20 02:49:55;;;;;;;1.90;0.70;;;;;;;15.06;41.34;99075.71;220154;1271;24281;-67
2022/05/20 02:55:07;;;;;;;1.30;1.00;;;;;;;15.10;41.35;99090.45;219596;1270;25255;-68
2022/05/20 03:05:41;;;;;;;1.30;0.80;;;;;;;15.08;41.50;99089.30;219403;1270;27450;-68
2022/05/20 03:10:48;;;;;;;2.20;1.00;;;;;;;15.11;41.48;99091.06;220272;1270;25236;-68
2022/05/20 03:15:51;;;;;;;2.30;0.90;;;;;;;15.12;41.55;99085.33;219779;1270;22550;-68
2022/05/20 03:21:08;;;;;;;0.90;0.70;;;;;;;15.14;41.54;99081.27;220116;1270;22540;-67
2022/05/20 03:26:11;;;;;;;0.90;0.70;;;;;;;15.20;41.54;99076.59;220626;1270;22661;-67
2022/05/20 03:31:14;;;;;;;2.10;0.90;;;;;;;15.34;41.42;99065.25;219751;1270;23103;-68
2022/05/20 03:36:17;;;;;;;0.90;0.80;;;;;;;15.54;41.14;99060.80;221191;1270;22702;-67
2022/05/20 03:41:20;;;;;;;4.50;1.50;;;;;;;15.75;40.96;99063.17;220039;1270;25392;-67
2022/05/20 03:46:23;;;;;;;2.00;0.90;;;;;;;16.00;40.80;99063.47;219639;1270;22556;-68
2022/05/20 03:51:26;;;;;;;1.90;1.10;;;;;;;16.16;40.57;99065.56;220746;1270;23084;-68
2022/05/20 03:56:31;;;;;;;2.30;1.00;;;;;;;16.28;40.60;99056.83;219413;1270;22538;-68
2022/05/20 04:06:58;;;;;;;4.10;0.90;;;;;;;16.48;40.18;99043.06;219634;1270;22551;-67
2022/05/20 04:12:03;;;;;;;3.10;1.00;;;;;;;16.53;40.40;99042.28;219963;1270;22635;-67
2022/05/20 04:17:06;;;;;;;2.10;1.10;;;;;;;16.59;40.10;99048.63;220124;1270;23589;-67
2022/05/20 04:22:09;;;;;;;1.60;0.80;;;;;;;16.66;40.01;99063.35;219364;1270;24317;-67
2022/05/20 04:27:12;;;;;;;2.10;0.90;;;;;;;16.75;40.01;99081.74;220494;1270;24258;-67
2022/05/20 04:32:22;;;;;;;0.80;0.80;;;;;;;16.87;40.17;99088.62;219483;1270;25485;-67
2022/05/20 04:37:25;;;;;;;1.30;1.00;;;;;;;16.95;40.19;99093.73;220321;1270;24431;-67
2022/05/20 04:47:49;;;;;;;1.50;0.90;;;;;;;16.96;40.41;99084.75;219461;1270;25543;-67
2022/05/20 04:52:51;;;;;;;1.40;1.00;;;;;;;17.03;40.41;99089.44;219690;1270;23359;-67
2022/05/20 04:57:54;;;;;;;2.50;1.00;;;;;;;17.20;40.48;99090.67;220355;1270;24914;-67
2022/05/20 05:02:56;;;;;;;2.00;1.30;;;;;;;17.44;40.58;99083.60;219626;1270;24263;-68
2022/05/20 05:08:01;;;;;;;1.90;1.10;;;;;;;17.74;40.61;99085.30;220184;1270;24255;-68
2022/05/20 05:13:05;;;;;;;3.20;1.60;;;;;;;18.00;40.28;99083.11;219653;1270;25554;-68
2022/05/20 05:18:13;;;;;;;3.50;1.50;;;;;;;18.20;40.21;99094.40;219931;1270;25025;-68
2022/05/20 05:23:20;;;;;;;1.40;1.00;;;;;;;18.37;40.00;99104.90;219999;1270;24223;-67
2022/05/20 05:28:23;;;;;;;5.00;1.30;;;;;;;18.57;40.09;99110.27;220866;1270;22602;-68
2022/05/20 05:33:30;;;;;;;2.20;1.40;;;;;;;18.95;39.89;99116.39;219214;1270;22624;-72
2022/05/20 05:38:44;;;;;;;4.20;1.10;;;;;;;19.22;39.53;99116.30;221554;1270;22591;-72
2022/05/20 05:44:19;;;;;;;3.60;1.50;;;;;;;19.34;39.19;99118.92;226109;1269;22702;-72
2022/05/20 05:49:22;;;;;;;3.10;1.30;;;;;;;19.40;39.26;99120.38;221661;1270;22581;-73
2022/05/20 05:54:24;;;;;;;2.40;1.20;;;;;;;19.53;39.70;99124.67;221387;1270;22534;-74
2022/05/20 05:59:31;;;;;;;3.30;1.40;;;;;;;19.76;39.53;99130.38;221490;1270;22556;-74
2022/05/20 06:04:33;;;;;;;3.80;1.30;;;;;;;19.77;39.26;99129.79;222020;1270;23708;-78
2022/05/20 06:09:39;;;;;;;2.90;1.40;;;;;;;19.66;39.40;99134.23;221988;1270;22554;-74
2022/05/20 06:14:42;;;;;;;2.40;0.90;;;;;;;19.67;39.64;99131.10;222066;1270;22888;-74
2022/05/20 06:19:44;;;;;;;1.90;0.90;;;;;;;19.71;39.74;99137.73;221703;1270;22691;-73
2022/05/20 06:25:04;;;;;;;1.40;1.00;;;;;;;19.87;40.06;99130.63;221706;1270;22544;-73
2022/05/20 06:30:32;;;;;;;3.20;1.40;;;;;;;20.18;39.82;99141.76;221292;1270;22545;-73
2022/05/20 06:40:57;;;;;;;2.30;1.00;;;;;;;20.69;39.35;99141.71;221306;1272;23729;-73
2022/05/20 06:46:02;;;;;;;4.90;1.30;;;;;;;20.94;39.25;99150.25;221695;1270;22637;-73
2022/05/20 06:51:25;;;;;;;2.20;1.20;;;;;;;20.99;39.33;99166.11;221557;1270;23042;-72
2022/05/20 06:56:44;;;;;;;1.70;1.20;;;;;;;21.05;39.24;99176.53;221417;1270;22524;-72
2022/05/20 07:02:15;;;;;;;3.30;1.20;;;;;;;21.04;39.23;99184.29;221540;1270;25624;-73
2022/05/20 07:07:29;;;;;;;2.70;1.20;;;;;;;20.97;39.68;99181.08;223197;1270;22537;-73
2022/05/20 07:12:33;;;;;;;1.60;1.30;;;;;;;20.88;39.72;99179.03;222566;1270;25465;-73
2022/05/20 07:17:37;;;;;;;3.90;1.30;;;;;;;20.88;39.59;99174.52;221631;1270;23391;-74
2022/05/20 07:22:42;;;;;;;2.50;1.30;;;;;;;21.12;40.01;99175.87;221559;1270;22609;-74
2022/05/20 07:27:45;;;;;;;2.80;1.40;;;;;;;21.44;39.79;99175.89;221506;1270;25179;-72
2022/05/20 07:32:47;;;;;;;3.00;1.30;;;;;;;21.67;39.88;99171.64;222383;1270;25379;-73
2022/05/20 07:37:53;;;;;;;3.70;1.90;;;;;;;21.81;39.78;99178.59;221412;1270;22540;-72
2022/05/20 07:42:55;;;;;;;3.10;1.70;;;;;;;21.96;39.82;99175.03;223902;1270;23058;-72
2022/05/20 07:48:01;;;;;;;2.90;1.80;;;;;;;22.10;39.79;99169.43;221546;1270;23200;-72
2022/05/20 07:53:21;;;;;;;60.10;12.50;;;;;;;22.15;40.00;99162.59;221585;1270;22561;-72
2022/05/20 07:58:34;;;;;;;3.20;1.60;;;;;;;22.29;40.20;99161.86;221661;1270;25344;-71
2022/05/20 08:09:19;;;;;;;1.70;1.50;;;;;;;22.39;39.78;99154.88;221416;1270;23832;-70
2022/05/20 08:14:28;;;;;;;3.00;1.50;;;;;;;22.62;39.47;99154.93;219439;1270;23171;-71
2022/05/20 08:19:31;;;;;;;3.50;1.80;;;;;;;22.73;39.31;99153.59;221545;1270;24323;-71
2022/05/20 08:24:43;;;;;;;2.30;1.50;;;;;;;22.87;39.41;99156.34;221535;1270;23005;-70
2022/05/20 08:30:05;;;;;;;2.40;1.70;;;;;;;22.98;39.13;99156.70;221429;1270;24392;-70
2022/05/20 08:35:14;;;;;;;6.00;1.70;;;;;;;23.09;38.91;99153.71;221580;1270;22546;-71
2022/05/20 08:40:21;;;;;;;4.10;2.00;;;;;;;23.19;38.68;99150.23;221286;1270;24260;-71
2022/05/20 08:45:26;;;;;;;3.50;1.80;;;;;;;23.26;38.34;99154.26;221425;1270;23036;-68
2022/05/20 08:50:46;;;;;;;2.70;1.80;;;;;;;23.13;38.23;99157.69;222686;1270;25156;-70
2022/05/20 08:55:51;;;;;;;5.90;1.90;;;;;;;23.12;38.79;99153.70;221527;1270;22554;-70
2022/05/20 09:00:54;;;;;;;2.50;1.60;;;;;;;23.13;38.57;99153.39;221619;1270;22637;-71
2022/05/20 09:06:07;;;;;;;5.70;1.90;;;;;;;23.16;38.91;99150.40;221419;1270;24210;-72
2022/05/20 09:11:15;;;;;;;3.80;2.20;;;;;;;23.10;38.38;99144.83;222400;1270;22535;-71
2022/05/20 09:16:37;;;;;;;5.70;1.80;;;;;;;23.05;39.03;99135.68;221895;1270;22548;-71
2022/05/20 09:21:44;;;;;;;3.70;2.10;;;;;;;23.22;39.19;99133.83;221842;1270;22597;-71
2022/05/20 09:26:59;;;;;;;4.30;3.30;;;;;;;23.21;38.74;99132.47;222794;1270;25350;-70
2022/05/20 09:32:05;;;;;;;4.30;2.60;;;;;;;23.25;39.19;99130.19;221441;1270;22600;-70
2022/05/20 09:37:16;;;;;;;2.90;1.80;;;;;;;23.44;39.31;99126.13;222171;1270;24337;-70
2022/05/20 09:42:23;;;;;;;3.50;2.60;;;;;;;23.63;39.16;99113.37;221695;1271;22707;-71
2022/05/20 09:47:52;;;;;;;2.50;2.10;;;;;;;23.84;39.60;99107.98;222769;1270;25490;-70
2022/05/20 09:53:15;;;;;;;3.20;2.70;;;;;;;24.23;39.62;99107.24;222583;1270;22715;-71
2022/05/20 09:58:27;;;;;;;2.30;1.70;;;;;;;24.44;38.74;99098.81;221472;1270;22556;-71
2022/05/20 10:04:01;;;;;;;3.40;2.80;;;;;;;24.48;38.60;99088.14;221451;1271;22597;-71
2022/05/20 10:09:40;;;;;;;2.90;2.40;;;;;;;24.66;38.83;99086.95;221530;1270;22605;-71
2022/05/20 10:14:57;;;;;;;2.10;1.90;;;;;;;24.93;38.74;99083.75;221283;1270;23205;-71
2022/05/20 10:20:30;;;;;;;4.10;2.80;;;;;;;25.13;38.57;99081.99;221456;1270;24394;-71
2022/05/20 10:25:48;;;;;;;2.60;2.40;;;;;;;25.35;38.33;99082.64;221757;1270;22694;-71
2022/05/20 10:36:33;;;;;;;3.50;2.10;;;;;;;25.76;38.11;99070.06;221625;1270;24222;-71
2022/05/20 10:42:18;;;;;;;2.40;2.10;;;;;;;25.96;37.95;99063.11;221717;1270;25382;-70
2022/05/20 10:53:44;;;;;;;3.50;2.60;;;;;;;26.29;37.14;99050.32;221511;1270;22646;-70
2022/05/20 10:59:15;;;;;;;2.20;2.10;;;;;;;26.47;37.29;99045.64;219289;1270;22709;-70
2022/05/20 11:04:48;;;;;;;3.30;2.20;;;;;;;26.67;37.09;99033.62;223381;1271;24941;-70
2022/05/20 11:09:51;;;;;;;4.00;2.60;;;;;;;27.06;36.97;99028.92;219739;1271;22531;-71
2022/05/20 11:15:15;;;;;;;2.40;2.20;;;;;;;27.20;36.02;99034.02;219314;1271;23540;-70
2022/05/20 11:20:32;;;;;;;2.70;2.40;;;;;;;27.26;36.08;99029.70;220445;1271;24225;-71
2022/05/20 11:25:47;;;;;;;3.00;2.50;;;;;;;27.54;36.26;99021.97;221904;1270;22604;-71
2022/05/20 11:31:27;;;;;;;3.00;2.00;;;;;;;27.69;35.45;99020.04;221581;1271;25352;-69
2022/05/20 11:36:52;;;;;;;1.80;1.70;;;;;;;27.82;35.82;99018.42;219684;1271;24237;-70
2022/05/20 11:42:33;;;;;;;2.30;2.20;;;;;;;28.15;35.46;99006.73;220166;1271;25372;-70
2022/05/20 11:47:59;;;;;;;2.80;2.40;;;;;;;28.43;35.55;99000.12;219510;1271;25401;-70
2022/05/20 11:53:20;;;;;;;2.40;2.10;;;;;;;28.58;34.89;98993.08;221507;1271;22641;-70
2022/05/20 11:58:36;;;;;;;3.70;2.60;;;;;;;28.50;34.79;98996.05;219507;1270;25332;-70
2022/05/20 12:04:07;;;;;;;2.20;2.00;;;;;;;28.43;34.77;98983.51;220944;1271;22567;-70
2022/05/20 12:09:40;;;;;;;2.60;2.40;;;;;;;28.46;35.14;98987.42;225064;1270;2810860;-69
2022/05/20 12:15:06;;;;;;;3.60;1.90;;;;;;;28.69;35.36;98983.96;221126;1269;24251;-70
2022/05/20 12:25:50;;;;;;;2.40;2.30;;;;;;;28.82;35.43;98974.80;220253;1271;22785;-70
2022/05/20 12:31:14;;;;;;;2.10;2.00;;;;;;;28.90;35.57;98967.41;220265;1271;22987;-70
2022/05/20 12:36:34;;;;;;;2.40;2.20;;;;;;;28.81;34.85;98969.53;219450;1271;22731;-70
2022/05/20 12:41:56;;;;;;;3.50;2.40;;;;;;;28.71;35.30;98961.75;220672;1271;26506;-70
2022/05/20 12:47:13;;;;;;;2.60;2.10;;;;;;;28.87;35.39;98958.92;219450;1271;22628;-70
2022/05/20 12:52:27;;;;;;;2.70;2.50;;;;;;;28.96;35.11;98958.13;221301;1270;25831;-70
2022/05/20 12:57:33;;;;;;;3.20;2.60;;;;;;;28.72;34.69;98944.33;221636;1271;25251;-70
2022/05/20 13:02:40;;;;;;;10.30;9.00;;;;;;;28.57;35.40;98939.86;219525;1271;22706;-70
2022/05/20 13:07:44;;;;;;;2.60;2.40;;;;;;;28.48;35.52;98935.85;220279;1270;26478;-71
2022/05/20 13:13:00;;;;;;;2.60;2.40;;;;;;;28.51;35.65;98923.08;221731;1270;23323;-71
2022/05/20 13:18:08;;;;;;;4.00;2.80;;;;;;;28.64;35.80;98910.38;222202;1271;22605;-71
2022/05/20 13:23:23;;;;;;;3.20;2.90;;;;;;;28.84;35.34;98906.50;225614;1271;22664;-70
2022/05/20 13:28:32;;;;;;;3.10;2.90;;;;;;;29.02;35.35;98902.54;221816;1271;25286;-70
2022/05/20 13:33:37;;;;;;;7.40;3.50;;;;;;;29.11;34.86;98902.13;221458;1270;22541;-71
2022/05/20 13:38:45;;;;;;;3.40;2.50;;;;;;;29.17;35.07;98899.47;221368;1270;22633;-72
2022/05/20 13:43:50;;;;;;;3.50;3.20;;;;;;;29.06;34.86;98898.40;222097;1270;25435;-71
2022/05/20 13:49:16;;;;;;;3.80;3.30;;;;;;;28.91;35.21;98881.77;221769;1271;22538;-72
2022/05/20 13:54:27;;;;;;;2.30;2.10;;;;;;;28.97;35.39;98877.94;223583;1270;22604;-73
2022/05/20 13:59:35;;;;;;;3.20;3.00;;;;;;;29.03;35.42;98877.08;221707;1270;22545;-72
2022/05/20 14:04:50;;;;;;;3.30;2.60;;;;;;;29.07;35.61;98869.24;221425;1270;22581;-72
2022/05/20 14:09:56;;;;;;;2.80;2.50;;;;;;;29.10;35.63;98861.17;221309;1271;23392;-71
2022/05/20 14:15:05;;;;;;;3.10;2.80;;;;;;;29.14;35.50;98858.91;221492;1271;22578;-72
2022/05/20 14:20:12;;;;;;;4.20;3.20;;;;;;;29.19;35.52;98848.77;221920;1270;22569;-71
2022/05/20 14:25:31;;;;;;;2.50;2.20;;;;;;;29.22;35.31;98839.67;221950;1271;22537;-71
2022/05/20 14:30:44;;;;;;;3.80;3.00;;;;;;;29.18;35.26;98839.64;221626;1270;22538;-72
2022/05/20 14:35:50;;;;;;;4.60;3.80;;;;;;;29.09;35.14;98835.88;221283;1270;22622;-71
2022/05/20 14:40:55;;;;;;;2.90;2.60;;;;;;;29.09;35.17;98837.86;221435;1270;24266;-72
2022/05/20 14:45:59;;;;;;;2.70;2.50;;;;;;;29.09;34.89;98830.05;221775;1270;22487;-71
2022/05/20 14:51:02;;;;;;;2.70;2.40;;;;;;;29.06;35.67;98822.45;221388;1270;22535;-71
2022/05/20 14:56:25;;;;;;;3.10;2.20;;;;;;;29.13;35.59;98815.90;222519;1271;22551;-71
2022/05/20 15:01:30;;;;;;;2.30;2.10;;;;;;;29.15;35.63;98817.36;221537;1271;22544;-71
2022/05/20 15:06:46;;;;;;;2.70;2.40;;;;;;;29.04;35.61;98810.98;221221;1270;22544;-71
2022/05/20 15:11:49;;;;;;;2.60;2.30;;;;;;;28.88;35.67;98805.66;221266;1270;23120;-71
2022/05/20 15:16:51;;;;;;;2.80;2.00;;;;;;;28.95;35.73;98797.77;221266;1271;24284;-71
2022/05/20 15:21:55;;;;;;;3.10;2.30;;;;;;;29.06;35.85;98788.65;221408;1271;23300;-70
2022/05/20 15:27:00;;;;;;;2.60;2.40;;;;;;;29.14;35.96;98773.89;222079;1270;25454;-72
2022/05/20 15:37:24;;;;;;;6.10;5.20;;;;;;;29.15;36.29;98757.64;221682;1271;22541;-71
2022/05/20 15:42:28;;;;;;;2.50;2.30;;;;;;;29.19;36.43;98752.55;221053;1270;22724;-71
2022/05/20 15:47:39;;;;;;;4.40;2.50;;;;;;;29.16;36.83;98750.15;221614;1271;25469;-71
2022/05/20 15:53:05;;;;;;;2.20;2.10;;;;;;;29.03;37.05;98740.30;221072;1270;25303;-71
2022/05/20 15:58:12;;;;;;;3.10;2.90;;;;;;;28.91;36.92;98736.70;221418;1269;22601;-72
2022/05/20 16:03:23;;;;;;;2.70;2.30;;;;;;;28.82;37.31;98723.18;220809;1271;22558;-71
2022/05/20 16:08:25;;;;;;;3.30;2.60;;;;;;;28.67;37.37;98711.79;221634;1270;22551;-71
2022/05/20 16:13:27;;;;;;;4.80;3.40;;;;;;;28.61;37.89;98699.96;221718;1271;22552;-71
2022/05/20 16:18:29;;;;;;;3.60;2.70;;;;;;;28.65;38.25;98693.70;221753;1270;22535;-71
2022/05/20 16:23:38;;;;;;;3.40;2.90;;;;;;;28.56;38.42;98690.32;221780;1271;22691;-71
2022/05/20 16:28:41;;;;;;;3.20;2.50;;;;;;;28.45;38.70;98678.55;221575;1270;23337;-71
2022/05/20 16:33:43;;;;;;;3.80;3.40;;;;;;;28.38;38.68;98668.34;221634;1271;22587;-71
2022/05/20 16:38:45;;;;;;;3.90;3.30;;;;;;;28.33;39.23;98667.20;221614;1270;22635;-71
2022/05/20 16:43:47;;;;;;;3.30;3.00;;;;;;;28.32;39.36;98662.65;221310;1270;25218;-72
2022/05/20 16:48:57;;;;;;;5.50;3.40;;;;;;;28.23;39.43;98655.14;221467;1270;22599;-70
2022/05/20 16:54:04;;;;;;;3.50;3.20;;;;;;;28.14;39.81;98657.27;221777;1269;26122;-70
2022/05/20 17:04:27;;;;;;;4.40;2.80;;;;;;;27.96;40.46;98648.40;221390;1270;22774;-70
2022/05/20 17:09:29;;;;;;;3.50;3.00;;;;;;;27.84;40.70;98647.25;221137;1270;22751;-70
2022/05/20 17:14:34;;;;;;;3.50;2.80;;;;;;;27.73;41.01;98643.50;221297;1270;23738;-71
2022/05/20 17:19:42;;;;;;;3.60;3.30;;;;;;;28.16;40.99;98645.29;221387;1270;22757;-70
2022/05/20 17:24:52;;;;;;;3.40;2.40;;;;;;;28.84;40.05;98640.76;221271;1270;22577;-70
2022/05/20 17:30:11;;;;;;;2.80;2.60;;;;;;;29.58;39.10;98634.69;219714;1270;22779;-71
2022/05/20 17:35:16;;;;;;;2.70;2.40;;;;;;;29.47;38.40;98628.88;222039;1270;25107;-72
2022/05/20 17:40:18;;;;;;;4.60;3.00;;;;;;;28.67;38.86;98623.27;222506;1270;22554;-72
2022/05/20 17:45:20;;;;;;;3.40;3.20;;;;;;;27.99;39.69;98621.07;221207;1270;22553;-70
2022/05/20 17:50:22;;;;;;;2.90;2.60;;;;;;;27.35;40.75;98622.74;221098;1270;22794;-71
2022/05/20 17:55:25;;;;;;;5.80;3.60;;;;;;;26.74;41.95;98619.69;221165;1270;22614;-71
2022/05/20 18:00:41;;;;;;;6.40;3.50;;;;;;;26.24;42.52;98616.52;221511;1270;22524;-70
2022/05/20 18:06:03;;;;;;;3.10;2.90;;;;;;;25.80;43.34;98602.90;221577;1271;22661;-71
2022/05/20 18:11:05;;;;;;;3.90;3.60;;;;;;;25.46;43.86;98591.58;221755;1271;22556;-70
2022/05/20 18:16:08;;;;;;;3.60;3.30;;;;;;;25.17;44.44;98580.45;221435;1270;22587;-70
2022/05/20 18:21:12;;;;;;;4.40;3.20;;;;;;;24.90;45.00;98573.06;221221;1270;23756;-71
2022/05/20 18:26:55;;;;;;;3.50;3.20;;;;;;;24.62;45.67;98566.11;221564;1270;25331;-71
2022/05/20 18:32:03;;;;;;;4.80;4.30;;;;;;;24.36;46.08;98563.37;221238;1270;26453;-70
2022/05/20 18:42:37;;;;;;;4.90;4.20;;;;;;;23.89;47.26;98557.92;219807;1270;22535;-71
2022/05/20 18:47:45;;;;;;;3.80;3.10;;;;;;;23.65;47.56;98552.05;221198;1270;22951;-71
2022/05/20 18:52:48;;;;;;;5.80;4.20;;;;;;;23.47;48.24;98550.78;221590;1270;22573;-70
2022/05/20 18:58:04;;;;;;;4.90;4.40;;;;;;;23.34;48.87;98542.58;221798;1270;24330;-70
2022/05/20 19:08:44;;;;;;;5.20;4.10;;;;;;;23.06;49.97;98519.55;221782;1270;22706;-72
2022/05/20 19:13:48;;;;;;;5.50;4.90;;;;;;;22.94;50.37;98512.05;221811;1271;23365;-71
2022/05/20 19:18:53;;;;;;;5.20;4.70;;;;;;;22.80;50.51;98495.77;221511;1271;22556;-71
2022/05/20 19:24:09;;;;;;;5.40;4.60;;;;;;;22.63;50.84;98492.42;221305;1270;22784;-71
2022/05/20 19:29:13;;;;;;;5.60;4.10;;;;;;;22.46;51.20;98481.34;221461;1270;22544;-70
2022/05/20 19:34:16;;;;;;;17.40;13.50;;;;;;;22.30;51.75;98475.40;221270;1270;23212;-70
2022/05/20 19:39:18;;;;;;;8.60;6.30;;;;;;;22.18;52.15;98468.95;219685;1270;25323;-70
2022/05/20 19:44:22;;;;;;;11.40;4.60;;;;;;;22.06;52.55;98463.36;221290;1270;22535;-70
2022/05/20 19:49:25;;;;;;;8.00;7.20;;;;;;;21.96;53.00;98451.17;221531;1270;25438;-71
2022/05/20 19:54:33;;;;;;;6.40;4.90;;;;;;;21.87;53.38;98434.41;219699;1270;25350;-71
2022/05/20 20:05:49;;;;;;;6.60;4.30;;;;;;;21.66;54.18;98434.55;221191;1270;22559;-72
2022/05/20 20:10:55;;;;;;;5.80;4.50;;;;;;;21.58;54.62;98444.33;221475;1270;23717;-71
2022/05/20 20:16:04;;;;;;;;;;;;;;;21.51;54.96;98450.48;221505;1270;23326;-71
2022/05/20 20:26:34;;;;;;;7.90;5.30;;;;;;;21.38;55.50;98443.12;221303;1270;22722;-71
2022/05/20 20:31:44;;;;;;;9.10;5.30;;;;;;;21.30;55.89;98450.08;221466;1270;25353;-71
2022/05/20 20:36:51;;;;;;;10.10;6.60;;;;;;;21.25;56.10;98453.45;222356;1270;22540;-72
2022/05/20 20:42:07;;;;;;;7.10;5.90;;;;;;;21.24;56.23;98439.33;221338;1270;22552;-70
2022/05/20 20:47:32;;;;;;;9.40;6.40;;;;;;;21.20;55.94;98412.91;221345;1270;22561;-70
2022/05/20 20:52:36;;;;;;;7.60;4.80;;;;;;;21.10;55.97;98399.86;221325;1270;22544;-71
2022/05/20 20:57:43;;;;;;;8.70;5.40;;;;;;;20.99;56.04;98393.08;221498;1270;22667;-71
2022/05/20 21:02:52;;;;;;;7.20;4.60;;;;;;;20.88;56.19;98383.83;221373;1270;22634;-71
2022/05/20 21:07:58;;;;;;;6.40;4.70;;;;;;;20.78;56.22;98365.80;221481;1270;22591;-70
2022/05/20 21:13:02;;;;;;;7.40;4.10;;;;;;;20.70;56.20;98344.30;222552;1269;22710;-70
2022/05/20 21:18:05;;;;;;;5.00;4.50;;;;;;;20.64;56.42;98334.00;222370;1270;24078;-70
2022/05/20 21:23:10;;;;;;;6.70;4.80;;;;;;;20.63;56.62;98329.23;221283;1270;23080;-70
2022/05/20 21:28:16;;;;;;;5.80;3.60;;;;;;;20.62;56.95;98325.11;221251;1270;23438;-69
2022/05/20 21:33:34;;;;;;;4.40;4.00;;;;;;;20.61;56.99;98312.26;219851;1270;22615;-70
2022/05/20 21:38:37;;;;;;;6.80;4.10;;;;;;;20.58;57.15;98304.13;220245;1270;24233;-71
2022/05/20 21:43:39;;;;;;;5.20;4.30;;;;;;;20.55;56.97;98296.54;221559;1270;22600;-71
2022/05/20 21:48:41;;;;;;;5.80;4.50;;;;;;;20.56;57.26;98299.35;221123;1270;22560;-71
2022/05/20 21:53:48;;;;;;;3.60;3.10;;;;;;;20.59;57.11;98300.96;219869;1270;25451;-70
2022/05/20 21:58:51;;;;;;;4.00;3.60;;;;;;;20.64;57.08;98284.38;220724;1271;25563;-70
2022/05/20 22:09:28;;;;;;;5.00;3.90;;;;;;;20.77;56.87;98279.92;221452;1270;24215;-70
2022/05/20 22:14:38;;;;;;;7.10;4.10;;;;;;;20.86;56.70;98274.29;219901;1270;23819;-70
2022/05/20 22:19:54;;;;;;;8.30;4.10;;;;;;;20.96;56.53;98271.61;219993;1271;22545;-70
2022/05/20 22:24:59;;;;;;;5.40;4.50;;;;;;;21.09;56.46;98286.55;220341;1271;25456;-73
2022/05/20 22:30:16;;;;;;;6.10;3.80;;;;;;;21.23;56.65;98299.73;221991;1270;23021;-70
2022/05/20 22:35:50;;;;;;;5.20;3.30;;;;;;;21.41;56.48;98294.79;221443;1270;22650;-70
2022/05/20 22:40:52;;;;;;;4.30;3.20;;;;;;;21.68;55.72;98299.15;221374;1270;24265;-70
2022/05/20 22:45:55;;;;;;;4.90;3.30;;;;;;;21.84;55.30;98292.67;221408;1270;25387;-70
2022/05/20 22:51:03;;;;;;;6.20;2.80;;;;;;;21.92;54.64;98270.63;221857;1271;22547;-69
2022/05/20 22:56:09;;;;;;;8.80;2.10;;;;;;;22.01;54.13;98278.97;221731;1271;23794;-70
2022/05/20 23:01:28;;;;;;;6.80;2.40;;;;;;;22.05;54.34;98290.77;219967;1271;24253;-70
2022/05/20 23:06:32;;;;;;;5.00;2.30;;;;;;;21.93;55.63;98286.99;219360;1272;22945;-70
2022/05/20 23:11:37;;;;;;;6.40;2.10;;;;;;;21.63;57.54;98295.04;221489;1269;25414;-71
2022/05/20 23:16:39;;;;;;;2.70;2.00;;;;;;;21.07;61.72;98272.91;221112;1270;25365;-70
2022/05/20 23:21:41;;;;;;;4.20;2.40;;;;;;;20.33;64.28;98262.55;221340;1270;24259;-70
2022/05/20 23:26:44;;;;;;;6.30;2.40;;;;;;;19.78;65.99;98249.96;219767;1270;25913;-69
2022/05/20 23:32:02;;;;;;;6.30;2.10;;;;;;;19.39;67.19;98221.54;220922;1270;22604;-68
2022/05/20 23:37:24;;;;;;;5.20;2.30;;;;;;;19.06;68.97;98201.17;219793;1269;24317;-70
2022/05/20 23:42:27;;;;;;;4.20;2.50;;;;;;;18.85;69.97;98190.05;221086;1270;22586;-71
2022/05/20 23:47:29;;;;;;;3.40;2.20;;;;;;;18.71;71.10;98200.21;221251;1271;24297;-71
2022/05/20 23:52:37;;;;;;;4.00;2.50;;;;;;;18.58;71.96;98208.33;221403;1271;24316;-71
2022/05/20 23:57:56;;;;;;;3.70;2.10;;;;;;;18.45;73.03;98198.06;221242;1270;22550;-70
